Pellston, MI

7:26 AM EDT on September 29, 2016 (GMT -0400)
Pellston Regional Airport Of Emmet County

Weather History for KPLN - January, 2014

Change the Weather History Date:

Saturday, January 25, 2014

  Actual Average Record
Temperature  
Mean Temperature 12 °F -  
Max Temperature 24 °F 26 °F 51 °F (1950)
Min Temperature 1 °F 8 °F -23 °F (2004)
Degree Days  
Heating Degree Days 52    
Moisture  
Dew Point 4 °F    
Average Humidity 74    
Maximum Humidity 93    
Minimum Humidity 60    
Precipitation  
Precipitation 0.02 in - - ()
Sea Level Pressure  
Sea Level Pressure 29.39 in    
Wind  
Wind Speed 17 mph (WNW)    
Max Wind Speed 28 mph    
Max Gust Speed 37 mph    
Visibility 4 miles    
Events Fog , Snow    
Averages and records for this station are not official NWS values.
T = Trace of Precipitation, MM = Missing Value Source: NWS Daily Summary

Daily Weather History Graph

Daily Weather History Graph

Search for Another Location

Airport or City:

Trip Planner

Search our weather history database for the weather conditions in past years. The results will help you decide how hot, cold, wet, or windy it might be!

Date:

Astronomy

Jan. 25, 2014 Rise Set
Actual Time 8:07 AM EST 5:35 PM EST
Civil Twilight 7:35 AM EST 6:07 PM EST
Nautical Twilight 6:59 AM EST 6:43 PM EST
Astronomical Twilight 6:24 AM EST 7:19 PM EST
Moon 2:37 AM EST (1/25) 12:36 PM EST (1/25)
Length of Visible Light 10h 32m
Length of Day
9h 27m
Waning Crescent, 34% of the Moon is Illuminated
Jan 25
Waning Crescent
Jan 30
New
Feb 6
First Quarter
Feb 14
Full
Feb 22
Last Quarter

Hourly Weather History & Observations

Time (EST) Temp. Windchill Dew Point Humidity Pressure Visibility Wind Dir Wind Speed Gust Speed Precip Events Conditions
12:03 AM 23.0 °F 13.9 °F 19.9 °F 88% 29.19 in 0.8 mi West 8.1 mph - 0.00 in Snow Light Snow
12:11 AM 23.0 °F 13.1 °F 19.9 °F 88% 29.19 in 1.2 mi West 9.2 mph - 0.00 in Snow Light Snow
12:54 AM 23.0 °F 11.7 °F 19.9 °F 88% 29.21 in 1.5 mi West 11.5 mph - 0.01 in Snow Light Snow
1:35 AM 23.0 °F 12.4 °F 19.9 °F 88% 29.15 in 3.0 mi West 10.4 mph - 0.00 in Snow Light Snow
1:54 AM 23.0 °F 14.7 °F 19.9 °F 88% 29.18 in 10.0 mi West 6.9 mph - 0.00 in   Overcast
2:44 AM 24.1 °F 12.0 °F 19.9 °F 84% 29.14 in 1.8 mi West 13.8 mph - 0.00 in Snow Light Snow
2:47 AM 24.1 °F 7.7 °F 19.9 °F 84% 29.14 in 0.8 mi West 26.5 mph 34.5 mph 0.01 in Snow Light Snow
2:51 AM 21.2 °F 4.2 °F 19.4 °F 93% 29.14 in 0.2 mi WNW 25.3 mph 34.5 mph 0.01 in Fog , Snow Heavy Snow
2:54 AM 21.9 °F 5.8 °F 18.0 °F 85% 29.18 in 0.2 mi WNW 23.0 mph 34.5 mph 0.01 in Fog , Snow Heavy Snow
2:59 AM 21.0 °F 5.0 °F 17.1 °F 85% 29.15 in 0.5 mi WNW 21.9 mph 33.4 mph 0.00 in Fog , Snow Snow
3:08 AM 21.0 °F 5.4 °F 17.1 °F 85% 29.16 in 1.2 mi WNW 20.7 mph 32.2 mph 0.00 in Snow Light Snow
3:16 AM 19.9 °F 2.8 °F 16.0 °F 85% 29.16 in 1.8 mi WNW 24.2 mph 32.2 mph 0.00 in Snow Light Snow
3:20 AM 19.9 °F 4.8 °F 15.1 °F 81% 29.16 in 2.0 mi WNW 18.4 mph 29.9 mph 0.00 in Snow Light Snow
3:31 AM 19.9 °F 4.8 °F 15.1 °F 81% 29.17 in 4.0 mi NW 18.4 mph 27.6 mph 0.00 in   Haze
3:54 AM 19.0 °F 3.2 °F 15.1 °F 85% 29.21 in 2.5 mi NW 19.6 mph 25.3 mph 0.00 in Snow Light Snow
4:03 AM 19.0 °F 1.6 °F 14.0 °F 81% 29.18 in 3.0 mi NW 24.2 mph 31.1 mph 0.00 in Snow Light Snow
4:15 AM 19.0 °F 0.6 °F 12.9 °F 77% 29.19 in 2.5 mi NNW 27.6 mph 34.5 mph 0.00 in Snow Light Snow
4:35 AM 17.1 °F 0.1 °F 9.0 °F 71% 29.21 in 4.0 mi NNW 20.7 mph 31.1 mph 0.00 in   Haze
4:54 AM 16.0 °F 0.6 °F 10.0 °F 77% 29.25 in 9.0 mi NW 16.1 mph 25.3 mph 0.00 in   Overcast
5:28 AM 14.0 °F -4.3 °F 7.0 °F 74% 29.24 in 2.5 mi NW 21.9 mph 35.7 mph 0.00 in   Overcast
5:35 AM 14.0 °F -3.0 °F 6.1 °F 71% 29.24 in 5.0 mi NW 18.4 mph 28.8 mph 0.00 in   Haze
5:54 AM 12.9 °F -4.4 °F 6.1 °F 74% 29.30 in 10.0 mi NW 18.4 mph - 0.00 in   Overcast
6:54 AM 10.0 °F -7.6 °F 3.0 °F 73% 29.34 in 10.0 mi WNW 17.3 mph - N/A   Clear
7:54 AM 9.0 °F -10.0 °F 1.9 °F 73% 29.37 in 9.0 mi NW 19.6 mph 26.5 mph N/A   Mostly Cloudy
8:54 AM 7.0 °F -12.6 °F -2.0 °F 67% 29.40 in 9.0 mi NW 19.6 mph 26.5 mph N/A   Clear
9:54 AM 6.1 °F -14.3 °F -2.0 °F 69% 29.42 in 8.0 mi WNW 20.7 mph 26.5 mph N/A   Clear
11:21 AM 7.0 °F -14.0 °F -0.9 °F 70% 29.41 in 2.5 mi NW 23.0 mph 31.1 mph N/A   Haze
11:31 AM 6.1 °F -13.3 °F -0.0 °F 76% 29.42 in 0.8 mi NNW 18.4 mph - 0.00 in Snow Light Snow
11:45 AM 7.0 °F -9.8 °F -0.9 °F 70% 29.42 in 1.8 mi NNW 13.8 mph - 0.00 in Snow Light Snow
11:54 AM 7.0 °F -10.4 °F -0.0 °F 73% 29.47 in 1.5 mi NW 15.0 mph - 0.00 in Snow Light Snow
12:31 PM 6.1 °F -12.8 °F -0.9 °F 73% 29.43 in 0.8 mi NW 17.3 mph 24.2 mph 0.00 in Snow Light Snow
12:38 PM 6.1 °F -11.6 °F -0.0 °F 76% 29.43 in 2.0 mi NW 15.0 mph - 0.00 in Snow Light Snow
12:50 PM 6.8 °F -13.8 °F -0.4 °F 72% 29.43 in 4.0 mi NW 21.9 mph - 0.00 in   Haze
12:54 PM 6.1 °F -14.3 °F -2.0 °F 69% 29.47 in 4.0 mi NW 20.7 mph 25.3 mph 0.00 in   Haze
1:17 PM 7.0 °F -13.6 °F -2.9 °F 64% 29.43 in 5.0 mi NW 21.9 mph 28.8 mph N/A   Haze
1:26 PM 7.0 °F -15.6 °F -2.9 °F 64% 29.43 in 1.8 mi NW 27.6 mph 35.7 mph N/A Snow Blowing Snow
1:37 PM 7.0 °F -12.6 °F -2.9 °F 64% 29.43 in 3.0 mi NW 19.6 mph 33.4 mph 0.00 in   Mostly Cloudy
1:53 PM 6.1 °F -16.5 °F -4.0 °F 63% 29.48 in 1.8 mi NW 26.5 mph 36.8 mph 0.00 in Snow Blowing Snow
2:33 PM 6.1 °F -16.5 °F -4.0 °F 63% 29.46 in 1.8 mi NW 26.5 mph 35.7 mph 0.00 in Snow Blowing Snow
2:54 PM 6.1 °F -15.2 °F -4.0 °F 63% 29.51 in 2.0 mi NW 23.0 mph 35.7 mph 0.00 in Snow Blowing Snow
3:04 PM 5.0 °F -15.7 °F -4.0 °F 66% 29.47 in 5.0 mi NW 20.7 mph 27.6 mph N/A   Haze
3:11 PM 5.0 °F -15.2 °F -2.9 °F 70% 29.47 in 1.5 mi NW 19.6 mph 28.8 mph 0.00 in Snow Light Snow
3:19 PM 5.0 °F -14.2 °F -0.9 °F 76% 29.48 in 0.5 mi WNW 17.3 mph 27.6 mph 0.00 in Snow Snow
3:26 PM 5.0 °F -13.6 °F -0.0 °F 80% 29.48 in 0.2 mi NW 16.1 mph 25.3 mph 0.00 in Snow Heavy Snow
3:32 PM 5.0 °F -15.7 °F -0.9 °F 76% 29.48 in 0.5 mi NW 20.7 mph 25.3 mph 0.00 in Snow Snow
3:54 PM 5.0 °F -15.7 °F -0.9 °F 76% 29.55 in 0.8 mi NW 20.7 mph 26.5 mph 0.00 in Snow Light Snow
4:09 PM 5.0 °F -14.2 °F -0.9 °F 76% 29.51 in 1.2 mi WNW 17.3 mph 26.5 mph 0.00 in Snow Light Snow
4:29 PM 3.9 °F -18.1 °F -2.0 °F 76% 29.52 in 0.5 mi WNW 23.0 mph 29.9 mph 0.00 in Snow Snow
4:40 PM 3.9 °F -16.6 °F -2.9 °F 73% 29.52 in 1.5 mi WNW 19.6 mph 27.6 mph 0.00 in   Haze
4:48 PM 3.2 °F -17.1 °F -2.2 °F 78% 29.53 in 0.8 mi WNW 18.4 mph 28.8 mph 0.00 in Snow Light Snow
4:54 PM 3.9 °F -17.6 °F -2.0 °F 76% 29.58 in 1.0 mi NW 21.9 mph 34.5 mph 0.00 in Snow Light Snow
5:05 PM 3.0 °F -17.8 °F -6.0 °F 66% 29.53 in 3.0 mi WNW 19.6 mph 29.9 mph 0.00 in   Haze
5:16 PM 3.0 °F -16.7 °F -6.0 °F 66% 29.54 in 5.0 mi WNW 17.3 mph 26.5 mph 0.00 in   Haze
5:37 PM 1.9 °F -20.2 °F -6.0 °F 69% 29.56 in 5.0 mi WNW 21.9 mph 27.6 mph 0.00 in   Haze
5:54 PM 1.9 °F -19.2 °F -7.1 °F 66% 29.62 in 8.0 mi WNW 19.6 mph - 0.00 in   Clear
6:54 PM 1.9 °F -17.5 °F -8.0 °F 63% 29.65 in 8.0 mi WNW 16.1 mph 27.6 mph N/A   Clear
7:54 PM 1.9 °F -16.2 °F -9.0 °F 60% 29.66 in 10.0 mi WNW 13.8 mph - N/A   Clear
8:54 PM 1.0 °F -17.3 °F -9.0 °F 63% 29.65 in 10.0 mi West 13.8 mph - N/A   Clear
9:54 PM 1.9 °F -16.9 °F -8.0 °F 63% 29.67 in 10.0 mi West 15.0 mph - N/A   Clear
10:54 PM 1.9 °F -15.5 °F -8.0 °F 63% 29.67 in 10.0 mi West 12.7 mph - N/A   Partly Cloudy
11:54 PM 1.9 °F -13.8 °F -8.0 °F 63% 29.66 in 10.0 mi West 10.4 mph - N/A   Scattered Clouds